Time;durP1;ratioP1;P1;durP2;ratioP2;P2;SDS_P1;SDS_P2;PMS_P1;PMS_P2;Temp;Humidity;BMP_temperature;BMP_pressure;BME280_temperature;BME280_humidity;BME280_pressure;Samples;Min_cycle;Max_cycle;Signal;HPM_P1;HPM_P2
2022/08/25 00:01:27;;;;;;;2.53;1.08;;;26.60;76.50;;;;;;5053541;28;20052;-27
2022/08/25 00:03:53;;;;;;;1.85;1.10;;;26.60;76.90;;;;;;5053614;28;20418;-26
2022/08/25 00:06:20;;;;;;;3.05;1.30;;;26.60;76.60;;;;;;5053569;28;20037;-27
2022/08/25 00:08:46;;;;;;;1.33;1.10;;;26.60;76.50;;;;;;5053315;28;20028;-27
2022/08/25 00:11:15;;;;;;;2.03;1.30;;;26.60;76.60;;;;;;5053266;28;20471;-27
2022/08/25 00:13:46;;;;;;;2.13;1.23;;;26.60;76.60;;;;;;5053285;28;20035;-26
2022/08/25 00:16:15;;;;;;;1.65;1.10;;;26.60;76.50;;;;;;5053371;28;20029;-26
2022/08/25 00:18:44;;;;;;;1.40;1.30;;;26.50;76.60;;;;;;5053155;28;20017;-26
2022/08/25 00:21:11;;;;;;;2.95;1.20;;;26.50;76.50;;;;;;5053007;28;20478;-26
2022/08/25 00:23:37;;;;;;;2.13;1.13;;;26.50;76.60;;;;;;5053248;28;20033;-27
2022/08/25 00:26:03;;;;;;;2.97;1.20;;;26.50;76.60;;;;;;5053067;28;20100;-26
2022/08/25 00:28:29;;;;;;;1.45;1.15;;;26.50;76.60;;;;;;5052940;28;20417;-26
2022/08/25 00:30:57;;;;;;;1.13;1.00;;;26.50;76.60;;;;;;5052894;28;20470;-26
2022/08/25 00:33:25;;;;;;;2.35;1.23;;;26.50;76.60;;;;;;5052853;28;20063;-27
2022/08/25 00:35:51;;;;;;;2.92;1.35;;;26.50;76.60;;;;;;5052908;28;20063;-27
2022/08/25 00:38:17;;;;;;;2.35;1.20;;;26.50;76.60;;;;;;5052780;28;20024;-26
2022/08/25 00:40:44;;;;;;;2.08;1.40;;;26.50;76.60;;;;;;5034734;28;20036;-26
2022/08/25 00:43:10;;;;;;;3.05;1.20;;;26.50;76.70;;;;;;5052914;28;20052;-26
2022/08/25 00:45:36;;;;;;;3.05;1.30;;;26.50;76.70;;;;;;5052803;28;20446;-26
2022/08/25 00:48:02;;;;;;;1.20;1.10;;;26.50;76.70;;;;;;5052648;28;20021;-27
2022/08/25 00:50:30;;;;;;;1.65;1.05;;;26.50;76.80;;;;;;5052436;28;20047;-26
2022/08/25 00:53:00;;;;;;;1.10;1.00;;;26.50;76.80;;;;;;5052431;28;20025;-26
2022/08/25 00:55:32;;;;;;;4.25;1.20;;;26.50;76.80;;;;;;5052601;28;20024;-26
2022/08/25 00:58:17;;;;;;;1.10;1.00;;;26.50;76.70;;;;;;5052576;28;20029;-27
2022/08/25 01:00:48;;;;;;;2.13;1.27;;;26.40;76.70;;;;;;5052366;28;20024;-27
2022/08/25 01:03:14;;;;;;;1.20;1.00;;;26.40;76.70;;;;;;5052486;28;20393;-27
2022/08/25 01:05:42;;;;;;;2.75;1.20;;;26.40;76.70;;;;;;5052240;28;20029;-27
2022/08/25 01:08:08;;;;;;;1.63;1.00;;;26.40;76.70;;;;;;5052303;28;20035;-27
2022/08/25 01:10:36;;;;;;;1.42;1.10;;;26.40;76.70;;;;;;5052239;28;20063;-26
2022/08/25 01:13:13;;;;;;;1.80;1.17;;;26.40;76.70;;;;;;5052280;28;20021;-27
2022/08/25 01:15:40;;;;;;;1.35;1.13;;;26.40;76.70;;;;;;5052746;28;20029;-26
2022/08/25 01:18:06;;;;;;;1.30;1.10;;;26.40;77.50;;;;;;5052550;28;20584;-26
2022/08/25 01:20:33;;;;;;;1.55;1.00;;;26.40;76.70;;;;;;5051931;28;20115;-26
2022/08/25 01:23:00;;;;;;;2.30;1.15;;;26.40;76.80;;;;;;5052297;28;20067;-26
2022/08/25 01:25:51;;;;;;;1.23;1.10;;;26.40;76.80;;;;;;5052121;28;20032;-26
2022/08/25 01:28:18;;;;;;;2.10;1.35;;;26.40;76.80;;;;;;5051937;28;20033;-26
2022/08/25 01:30:44;;;;;;;1.30;0.93;;;26.40;76.80;;;;;;5051344;28;20025;-27
2022/08/25 01:33:10;;;;;;;1.23;1.00;;;26.40;76.80;;;;;;5051968;28;20029;-27
2022/08/25 01:35:37;;;;;;;1.30;1.13;;;26.40;76.80;;;;;;5051976;28;20021;-27
2022/08/25 01:38:04;;;;;;;1.95;1.10;;;26.40;76.80;;;;;;5051935;28;20032;-26
2022/08/25 01:40:31;;;;;;;1.77;1.30;;;26.40;76.80;;;;;;5051872;28;20033;-27
2022/08/25 01:43:07;;;;;;;2.00;1.27;;;26.30;76.70;;;;;;5051850;28;20064;-27
2022/08/25 01:45:33;;;;;;;2.28;1.10;;;26.40;76.90;;;;;;5052122;28;20025;-25
2022/08/25 01:47:59;;;;;;;2.58;1.20;;;26.30;76.80;;;;;;5051680;28;20033;-26
2022/08/25 01:50:25;;;;;;;1.83;1.10;;;26.30;76.80;;;;;;5051638;28;20097;-26
2022/08/25 01:52:58;;;;;;;1.50;0.90;;;26.30;76.80;;;;;;5051762;28;20021;-26
2022/08/25 01:55:24;;;;;;;1.88;1.00;;;26.30;76.90;;;;;;5051851;28;20668;-27
2022/08/25 01:57:50;;;;;;;1.63;1.27;;;26.30;76.90;;;;;;5051667;28;20080;-26
2022/08/25 02:00:17;;;;;;;1.40;1.30;;;26.30;76.80;;;;;;5051551;28;20496;-27
2022/08/25 02:02:43;;;;;;;1.30;1.08;;;26.30;76.80;;;;;;5051739;28;20029;-27
2022/08/25 02:05:10;;;;;;;1.10;1.00;;;26.30;76.80;;;;;;5033818;28;20180;-28
2022/08/25 02:07:37;;;;;;;1.45;1.20;;;26.30;76.90;;;;;;5051591;28;20021;-26
2022/08/25 02:10:05;;;;;;;1.10;1.00;;;26.30;76.90;;;;;;5051366;28;20063;-27
2022/08/25 02:12:31;;;;;;;1.10;1.00;;;26.30;76.90;;;;;;5051508;28;20386;-27
2022/08/25 02:15:00;;;;;;;3.08;0.95;;;26.30;77.00;;;;;;5033758;28;20025;-27
2022/08/25 02:17:26;;;;;;;1.45;1.15;;;26.30;76.90;;;;;;5051529;28;20459;-27
2022/08/25 02:19:54;;;;;;;1.45;1.20;;;26.30;77.00;;;;;;5051427;28;20021;-26
2022/08/25 02:22:20;;;;;;;1.30;1.00;;;26.30;77.80;;;;;;5051415;28;20028;-26
2022/08/25 02:24:46;;;;;;;1.30;1.17;;;26.30;77.00;;;;;;5051455;28;20024;-26
2022/08/25 02:27:12;;;;;;;2.83;1.15;;;26.20;76.90;;;;;;5051362;28;20470;-27
2022/08/25 02:29:38;;;;;;;1.30;1.00;;;26.20;76.90;;;;;;5051709;28;20048;-26
2022/08/25 02:32:04;;;;;;;2.05;1.20;;;26.20;76.90;;;;;;5051194;28;20494;-27
2022/08/25 02:34:30;;;;;;;1.48;0.95;;;26.20;77.00;;;;;;5051414;28;20087;-27
2022/08/25 02:36:56;;;;;;;2.05;1.00;;;26.20;77.00;;;;;;5051417;28;20021;-27
2022/08/25 02:39:21;;;;;;;1.10;1.00;;;26.30;77.10;;;;;;5051014;28;20025;-27
2022/08/25 02:41:47;;;;;;;3.03;1.45;;;26.20;77.00;;;;;;5053032;28;20541;-26
2022/08/25 02:44:13;;;;;;;12.60;1.70;;;26.10;76.90;;;;;;5055086;28;20536;-27
2022/08/25 02:46:38;;;;;;;5.53;1.70;;;25.70;77.30;;;;;;5054942;28;20021;-26
2022/08/25 02:49:05;;;;;;;6.55;1.63;;;25.50;78.10;;;;;;5054750;28;20032;-26
2022/08/25 02:51:32;;;;;;;3.60;1.67;;;25.40;78.20;;;;;;5054886;28;20021;-27
2022/08/25 02:54:00;;;;;;;4.18;1.50;;;25.50;78.10;;;;;;5054839;28;20159;-27
2022/08/25 02:56:27;;;;;;;6.68;1.50;;;25.60;77.90;;;;;;5054858;28;20028;-26
2022/08/25 02:58:53;;;;;;;6.03;1.88;;;25.70;77.80;;;;;;5054676;28;20044;-27
2022/08/25 03:01:20;;;;;;;3.72;1.15;;;25.70;77.60;;;;;;5054591;28;20043;-26
2022/08/25 03:03:47;;;;;;;4.80;1.50;;;25.80;77.50;;;;;;5054756;28;20384;-26
2022/08/25 03:06:15;;;;;;;3.88;1.40;;;25.80;77.40;;;;;;5054633;28;20059;-27
2022/08/25 03:08:42;;;;;;;3.25;1.33;;;25.90;77.40;;;;;;5054598;28;20029;-27
2022/08/25 03:11:08;;;;;;;5.13;1.75;;;25.90;77.40;;;;;;5054665;28;20029;-26
2022/08/25 03:13:34;;;;;;;5.28;1.88;;;25.80;77.30;;;;;;5054538;28;20116;-28
2022/08/25 03:16:02;;;;;;;3.85;1.20;;;25.20;77.80;;;;;;5036929;28;20389;-26
2022/08/25 03:18:28;;;;;;;5.05;1.40;;;25.00;78.80;;;;;;5054337;28;20017;-28
2022/08/25 03:20:53;;;;;;;3.70;1.38;;;24.90;78.90;;;;;;5054145;28;20037;-28
2022/08/25 03:23:19;;;;;;;2.70;1.42;;;25.00;78.70;;;;;;5054246;28;20094;-27
2022/08/25 03:28:31;;;;;;;1.90;1.20;;;25.30;78.40;;;;;;5054149;28;20133;-26
2022/08/25 03:31:01;;;;;;;5.28;1.67;;;25.40;78.20;;;;;;5054123;28;20053;-26
2022/08/25 03:33:28;;;;;;;2.67;1.48;;;25.40;78.00;;;;;;5053894;28;20032;-25
2022/08/25 03:35:54;;;;;;;1.60;1.15;;;25.50;77.90;;;;;;5054156;28;20021;-28
2022/08/25 03:38:21;;;;;;;3.13;1.30;;;25.50;77.80;;;;;;5054010;28;20108;-26
2022/08/25 03:40:47;;;;;;;1.90;1.45;;;25.50;77.70;;;;;;5053916;28;20565;-27
2022/08/25 03:43:13;;;;;;;2.35;1.40;;;25.50;77.70;;;;;;5053930;28;20021;-27
2022/08/25 03:45:40;;;;;;;2.30;1.33;;;25.60;77.70;;;;;;5054333;28;20078;-26
2022/08/25 03:48:06;;;;;;;1.90;1.20;;;25.60;77.60;;;;;;5054123;28;20021;-27
2022/08/25 03:50:32;;;;;;;1.38;1.23;;;25.60;77.60;;;;;;5053752;28;20023;-27
2022/08/25 03:52:58;;;;;;;2.03;1.25;;;25.60;77.60;;;;;;5053169;28;20029;-28
2022/08/25 03:55:25;;;;;;;2.25;1.20;;;25.60;77.60;;;;;;5053763;28;20025;-27
2022/08/25 03:57:52;;;;;;;2.92;1.60;;;25.60;77.60;;;;;;5053674;28;20032;-26
2022/08/25 04:00:19;;;;;;;2.58;1.10;;;25.60;77.60;;;;;;5053450;28;20029;-27
2022/08/25 04:02:44;;;;;;;1.63;1.15;;;25.60;77.60;;;;;;5053291;28;20483;-26
2022/08/25 04:05:10;;;;;;;1.50;1.27;;;25.70;77.70;;;;;;5053610;28;20063;-26
2022/08/25 04:07:36;;;;;;;2.42;1.20;;;25.60;77.60;;;;;;5053883;28;20421;-27
2022/08/25 04:10:04;;;;;;;1.83;1.30;;;25.60;77.60;;;;;;5053317;28;20101;-27
2022/08/25 04:12:30;;;;;;;2.08;1.20;;;25.60;77.60;;;;;;5053376;28;20107;-27
2022/08/25 04:14:56;;;;;;;1.65;1.10;;;25.60;77.70;;;;;;5053274;28;20104;-26
2022/08/25 04:17:21;;;;;;;2.40;1.20;;;25.60;77.70;;;;;;5053283;28;20025;-26
2022/08/25 04:19:47;;;;;;;2.40;1.10;;;25.60;77.70;;;;;;5053207;28;20079;-27
2022/08/25 04:22:13;;;;;;;1.35;1.10;;;25.70;77.70;;;;;;5053101;28;20029;-28
2022/08/25 04:24:39;;;;;;;1.30;1.20;;;25.60;77.70;;;;;;5053181;28;20078;-28
2022/08/25 04:27:04;;;;;;;1.17;1.08;;;25.60;77.70;;;;;;5035511;28;20462;-27
2022/08/25 04:29:31;;;;;;;1.30;1.10;;;25.60;77.70;;;;;;5052875;28;20040;-27
2022/08/25 04:31:56;;;;;;;1.85;1.23;;;25.60;77.70;;;;;;5052728;28;20044;-27
2022/08/25 04:34:24;;;;;;;2.40;1.33;;;25.60;77.70;;;;;;5053026;28;20486;-26
2022/08/25 04:36:50;;;;;;;1.77;1.10;;;25.60;77.70;;;;;;5052982;28;20021;-27
2022/08/25 04:39:19;;;;;;;1.85;1.27;;;25.60;77.70;;;;;;5052781;28;20540;-26
2022/08/25 04:41:45;;;;;;;2.45;1.20;;;25.60;77.70;;;;;;5052695;28;20021;-25
2022/08/25 04:44:11;;;;;;;1.80;1.30;;;25.60;77.70;;;;;;5052738;28;20127;-27
2022/08/25 04:46:37;;;;;;;2.05;1.17;;;25.60;77.70;;;;;;5052764;28;20036;-28
2022/08/25 04:49:03;;;;;;;1.40;1.10;;;25.60;77.70;;;;;;5052499;28;20021;-26
2022/08/25 04:51:47;;;;;;;1.90;1.33;;;25.60;77.70;;;;;;5052546;28;20021;-26
2022/08/25 04:54:20;;;;;;;1.30;1.20;;;25.60;77.80;;;;;;5052719;28;20059;-27
2022/08/25 04:56:46;;;;;;;1.20;1.10;;;25.60;77.90;;;;;;5052536;28;20367;-28
2022/08/25 04:59:14;;;;;;;1.38;1.17;;;25.50;77.80;;;;;;5052359;28;20083;-26
2022/08/25 05:01:41;;;;;;;1.25;1.10;;;25.50;77.80;;;;;;5052394;28;20405;-28
2022/08/25 05:04:09;;;;;;;1.75;1.17;;;25.50;78.60;;;;;;5052117;28;20393;-26
2022/08/25 05:06:35;;;;;;;1.42;1.25;;;25.50;77.90;;;;;;5052015;28;20100;-26
2022/08/25 05:09:00;;;;;;;2.70;1.25;;;25.50;77.90;;;;;;5052162;28;20103;-28
2022/08/25 05:11:26;;;;;;;1.95;1.35;;;25.50;77.90;;;;;;5052063;28;20068;-26
2022/08/25 05:13:54;;;;;;;1.10;1.00;;;25.50;77.90;;;;;;5052316;28;20471;-27
2022/08/25 05:16:21;;;;;;;1.88;1.30;;;25.50;77.90;;;;;;5052255;28;20021;-27
2022/08/25 05:18:47;;;;;;;1.27;1.17;;;25.50;78.60;;;;;;5052078;28;20029;-27
2022/08/25 05:21:16;;;;;;;1.52;1.25;;;25.50;77.90;;;;;;5052042;28;20029;-27
2022/08/25 05:23:42;;;;;;;1.77;1.08;;;25.50;77.90;;;;;;5052062;28;20078;-27
2022/08/25 05:26:11;;;;;;;1.30;1.00;;;25.50;77.90;;;;;;5052280;28;20052;-26
2022/08/25 05:28:40;;;;;;;2.95;1.30;;;25.50;77.90;;;;;;5051951;28;20414;-27
2022/08/25 05:31:07;;;;;;;2.65;1.30;;;25.50;77.90;;;;;;5051964;28;20024;-26
2022/08/25 05:33:34;;;;;;;1.20;1.10;;;25.50;78.00;;;;;;5052470;28;20029;-26
2022/08/25 05:36:00;;;;;;;1.63;1.20;;;25.40;77.90;;;;;;5052019;28;20029;-26
2022/08/25 05:38:26;;;;;;;1.40;1.30;;;25.50;78.00;;;;;;5051733;28;20533;-26
2022/08/25 05:40:56;;;;;;;1.88;1.17;;;25.50;78.00;;;;;;5052031;28;20040;-25
2022/08/25 05:43:21;;;;;;;1.95;1.20;;;25.50;78.00;;;;;;5051834;28;20111;-26
2022/08/25 05:45:47;;;;;;;2.15;1.30;;;25.50;78.00;;;;;;5051870;28;20108;-25
2022/08/25 05:48:13;;;;;;;1.25;1.15;;;25.50;78.00;;;;;;5051682;28;20029;-26
2022/08/25 05:50:39;;;;;;;1.30;1.17;;;25.50;78.00;;;;;;5051621;28;20033;-25
2022/08/25 05:53:04;;;;;;;1.77;1.20;;;25.40;78.00;;;;;;5051669;28;20021;-26
2022/08/25 05:55:30;;;;;;;1.70;1.15;;;25.50;78.10;;;;;;5051754;28;20028;-25
2022/08/25 05:57:56;;;;;;;1.20;1.10;;;25.50;78.00;;;;;;5051749;28;20087;-26
2022/08/25 06:00:21;;;;;;;2.45;1.25;;;25.50;78.10;;;;;;5051537;28;20105;-26
2022/08/25 06:02:48;;;;;;;2.25;1.25;;;25.40;78.00;;;;;;5051683;28;20052;-25
2022/08/25 06:05:20;;;;;;;1.38;1.20;;;25.40;78.00;;;;;;5051710;28;20021;-26
2022/08/25 06:07:48;;;;;;;1.90;1.30;;;25.40;78.00;;;;;;5051538;28;20486;-26
2022/08/25 06:10:14;;;;;;;1.27;1.02;;;25.40;78.10;;;;;;5051684;28;20025;-26
2022/08/25 06:12:44;;;;;;;1.55;1.10;;;25.40;78.10;;;;;;5051642;28;20429;-26
2022/08/25 06:15:15;;;;;;;1.67;1.23;;;25.40;78.20;;;;;;5051690;28;20444;-26
2022/08/25 06:17:41;;;;;;;1.70;1.10;;;25.40;78.20;;;;;;5054994;28;20545;-26
2022/08/25 06:20:13;;;;;;;2.13;1.10;;;25.40;78.20;;;;;;5055280;28;20363;-26
2022/08/25 06:22:39;;;;;;;1.73;1.38;;;25.50;78.20;;;;;;5055600;28;20047;-26
2022/08/25 06:25:07;;;;;;;1.40;1.20;;;25.40;78.20;;;;;;5055903;28;20025;-26
2022/08/25 06:27:33;;;;;;;1.90;1.30;;;25.50;78.30;;;;;;5055817;28;20060;-26
2022/08/25 06:30:03;;;;;;;1.30;1.20;;;25.40;78.10;;;;;;5055754;28;20083;-25
2022/08/25 06:32:34;;;;;;;2.58;1.40;;;25.40;78.10;;;;;;5055593;28;20032;-26
2022/08/25 06:35:01;;;;;;;1.65;1.10;;;25.50;78.20;;;;;;5055515;28;20032;-26
2022/08/25 06:37:27;;;;;;;1.90;1.27;;;25.50;78.20;;;;;;5055252;28;20425;-26
2022/08/25 06:39:52;;;;;;;1.48;0.95;;;25.50;78.20;;;;;;5055092;28;20025;-26
2022/08/25 06:42:18;;;;;;;1.52;1.20;;;25.50;78.20;;;;;;5055030;28;20504;-26
2022/08/25 06:44:44;;;;;;;1.17;1.08;;;25.50;78.30;;;;;;5055177;28;20127;-26
2022/08/25 06:47:10;;;;;;;1.27;1.17;;;25.50;78.20;;;;;;5036934;28;20083;-26
2022/08/25 06:49:35;;;;;;;2.33;1.20;;;25.50;78.20;;;;;;5037026;28;20112;-26
2022/08/25 06:52:01;;;;;;;1.60;1.20;;;25.50;78.20;;;;;;5054708;28;20420;-25
2022/08/25 06:54:27;;;;;;;1.23;1.13;;;25.50;78.30;;;;;;5054946;28;20104;-26
2022/08/25 06:56:53;;;;;;;1.98;1.10;;;25.50;78.30;;;;;;5054837;28;20025;-26
2022/08/25 06:59:18;;;;;;;1.63;1.10;;;25.50;78.30;;;;;;5054633;28;20115;-26
2022/08/25 07:01:44;;;;;;;1.48;1.00;;;25.60;78.20;;;;;;5054526;28;20099;-25
2022/08/25 07:04:10;;;;;;;1.30;1.00;;;25.50;78.20;;;;;;5054760;28;20375;-25
2022/08/25 07:06:36;;;;;;;1.25;1.15;;;25.60;78.40;;;;;;5054598;28;20428;-25
2022/08/25 07:09:06;;;;;;;1.27;1.15;;;25.60;78.20;;;;;;5054550;28;20063;-26
2022/08/25 07:11:33;;;;;;;1.60;1.10;;;25.60;78.30;;;;;;5054368;28;20462;-25
2022/08/25 07:14:01;;;;;;;1.60;1.10;;;25.60;78.40;;;;;;5054479;28;20025;-25
2022/08/25 07:16:27;;;;;;;1.55;1.30;;;25.60;78.60;;;;;;5054274;28;20151;-26
2022/08/25 07:18:55;;;;;;;1.73;1.20;;;25.60;78.60;;;;;;5054255;28;20032;-26
2022/08/25 07:21:22;;;;;;;1.35;1.20;;;25.60;78.80;;;;;;5054194;28;20021;-26
2022/08/25 07:23:47;;;;;;;1.55;1.10;;;25.50;78.70;;;;;;5054295;28;20118;-26
2022/08/25 07:26:16;;;;;;;1.48;1.10;;;25.50;78.80;;;;;;5054692;28;20324;-26
2022/08/25 07:28:42;;;;;;;1.52;1.20;;;25.50;78.80;;;;;;5052909;28;20474;-26
2022/08/25 07:31:09;;;;;;;1.90;1.20;;;25.50;78.80;;;;;;5053956;28;20040;-26
2022/08/25 07:33:34;;;;;;;1.63;1.30;;;25.60;78.90;;;;;;5054112;28;20029;-25
2022/08/25 07:36:00;;;;;;;1.92;1.23;;;25.60;78.80;;;;;;5054015;28;20028;-26
2022/08/25 07:38:27;;;;;;;1.55;1.25;;;25.60;78.80;;;;;;5053953;28;20525;-25
2022/08/25 07:41:00;;;;;;;1.40;1.25;;;25.70;79.60;;;;;;5053884;28;20032;-25
2022/08/25 07:43:26;;;;;;;1.77;1.20;;;25.70;78.70;;;;;;5053750;28;20029;-26
2022/08/25 07:45:52;;;;;;;1.83;1.42;;;25.70;78.60;;;;;;5053870;28;20025;-26
2022/08/25 07:48:19;;;;;;;1.70;1.25;;;25.80;78.60;;;;;;5053896;28;20071;-26
2022/08/25 07:50:47;;;;;;;1.35;1.23;;;25.80;78.60;;;;;;5053721;28;20045;-26
2022/08/25 07:53:15;;;;;;;1.27;1.10;;;25.80;78.60;;;;;;5053648;28;20470;-26
2022/08/25 07:55:41;;;;;;;1.55;1.20;;;25.80;78.60;;;;;;5053700;28;20025;-26
2022/08/25 07:58:08;;;;;;;1.13;1.00;;;25.80;78.60;;;;;;5053490;28;20474;-26
2022/08/25 08:00:36;;;;;;;1.48;1.17;;;25.90;78.60;;;;;;5053576;28;20051;-26
2022/08/25 08:03:05;;;;;;;1.45;1.17;;;25.90;78.50;;;;;;5053580;28;20486;-26
2022/08/25 08:05:31;;;;;;;1.45;1.20;;;25.90;78.50;;;;;;5053888;28;20067;-26
2022/08/25 08:07:57;;;;;;;1.67;1.38;;;25.90;78.50;;;;;;5053517;28;20424;-26
2022/08/25 08:10:24;;;;;;;2.42;1.42;;;25.90;78.50;;;;;;5053197;28;20070;-26
2022/08/25 08:12:50;;;;;;;1.50;1.00;;;25.90;78.50;;;;;;5053331;28;20025;-26
2022/08/25 08:15:16;;;;;;;1.52;1.23;;;25.90;78.50;;;;;;5053398;28;20053;-26
2022/08/25 08:17:42;;;;;;;1.25;1.15;;;25.90;78.50;;;;;;5053344;28;20442;-26
2022/08/25 08:20:10;;;;;;;2.22;1.40;;;25.90;78.60;;;;;;5053092;28;20501;-26
2022/08/25 08:22:37;;;;;;;1.38;1.27;;;25.90;78.60;;;;;;5053282;28;20028;-25
2022/08/25 08:25:04;;;;;;;1.60;1.20;;;25.90;78.60;;;;;;5053057;28;20166;-26
2022/08/25 08:27:30;;;;;;;1.40;1.20;;;25.90;78.60;;;;;;5053006;28;20029;-26
2022/08/25 08:29:55;;;;;;;1.55;1.17;;;26.00;78.70;;;;;;5053011;28;20027;-26
2022/08/25 08:32:21;;;;;;;1.70;1.48;;;26.00;78.70;;;;;;5052825;28;20492;-26
2022/08/25 08:34:47;;;;;;;1.60;1.50;;;26.00;78.70;;;;;;5053105;28;20025;-26
2022/08/25 08:37:14;;;;;;;1.48;1.38;;;26.00;78.70;;;;;;5035097;28;20021;-25
2022/08/25 08:39:40;;;;;;;2.15;1.35;;;26.00;78.70;;;;;;5052538;28;20074;-26
2022/08/25 08:42:31;;;;;;;1.98;1.27;;;26.00;78.80;;;;;;5052732;28;20432;-26
2022/08/25 08:45:18;;;;;;;1.60;1.30;;;26.00;78.80;;;;;;5052838;28;20031;-26
2022/08/25 08:48:09;;;;;;;1.60;1.45;;;26.00;79.60;;;;;;5052730;28;20104;-26
2022/08/25 08:51:17;;;;;;;1.63;1.40;;;26.00;78.90;;;;;;5052599;28;20025;-26
2022/08/25 08:53:55;;;;;;;2.00;1.23;;;26.00;78.80;;;;;;5052655;28;20013;-26
2022/08/25 08:56:27;;;;;;;1.63;1.30;;;26.00;78.90;;;;;;5052539;28;20100;-27
2022/08/25 08:59:03;;;;;;;1.35;1.23;;;26.00;78.90;;;;;;5052554;28;20474;-26
2022/08/25 09:01:43;;;;;;;1.73;1.40;;;26.00;78.90;;;;;;5052512;28;20054;-26
2022/08/25 09:04:21;;;;;;;2.10;1.55;;;26.10;78.90;;;;;;5052554;28;20024;-25
2022/08/25 09:06:49;;;;;;;1.48;1.38;;;26.00;78.80;;;;;;5052385;28;20029;-26
2022/08/25 09:09:27;;;;;;;1.30;1.20;;;26.10;78.90;;;;;;5052153;28;20061;-26
2022/08/25 09:11:59;;;;;;;1.70;1.30;;;26.10;78.90;;;;;;5052231;28;20025;-25
2022/08/25 09:14:38;;;;;;;1.73;1.38;;;26.10;78.80;;;;;;5052329;28;20032;-26
2022/08/25 09:17:07;;;;;;;3.25;1.65;;;26.10;78.80;;;;;;5052224;28;20028;-26
2022/08/25 09:19:57;;;;;;;2.00;1.50;;;26.10;78.70;;;;;;5052030;28;20025;-26
2022/08/25 09:22:35;;;;;;;2.13;1.20;;;26.10;78.70;;;;;;5052332;28;20025;-25
2022/08/25 09:25:10;;;;;;;1.98;1.50;;;26.20;78.80;;;;;;5052195;28;20040;-26
2022/08/25 09:27:59;;;;;;;1.92;1.50;;;26.20;78.70;;;;;;5051896;28;20025;-26
2022/08/25 09:30:26;;;;;;;22.10;3.80;;;26.20;78.70;;;;;;5052054;28;20017;-25
2022/08/25 09:33:00;;;;;;;12.90;3.50;;;26.30;81.30;;;;;;5051909;28;20033;-25
2022/08/25 09:35:29;;;;;;;9.50;3.05;;;26.30;81.20;;;;;;5052535;28;20033;-26
2022/08/25 09:38:01;;;;;;;15.80;3.38;;;26.30;80.90;;;;;;5051872;28;20100;-25
2022/08/25 09:40:30;;;;;;;8.85;3.17;;;26.30;80.70;;;;;;5051880;28;20104;-25
2022/08/25 09:42:58;;;;;;;11.77;3.70;;;26.40;80.60;;;;;;5051855;28;20025;-26
2022/08/25 09:45:42;;;;;;;8.13;3.30;;;26.40;80.40;;;;;;5051926;28;20021;-25
2022/08/25 09:48:23;;;;;;;11.38;3.20;;;26.40;80.30;;;;;;5051791;28;20024;-26
2022/08/25 09:50:51;;;;;;;14.80;3.40;;;26.40;80.20;;;;;;5033316;28;20033;-26
2022/08/25 09:53:18;;;;;;;11.68;3.67;;;26.40;80.10;;;;;;5051710;28;20017;-25
2022/08/25 09:55:51;;;;;;;11.73;3.58;;;26.40;80.10;;;;;;5051788;28;20048;-25
2022/08/25 09:58:22;;;;;;;7.60;2.83;;;26.40;80.00;;;;;;5051784;28;20039;-26
2022/08/25 10:01:15;;;;;;;7.55;2.78;;;26.50;79.90;;;;;;5033733;28;20032;-25
2022/08/25 10:03:59;;;;;;;9.30;3.00;;;26.50;79.90;;;;;;5051903;28;20441;-25
2022/08/25 10:06:28;;;;;;;7.18;3.28;;;26.50;79.80;;;;;;5051862;28;20021;-25
2022/08/25 10:09:25;;;;;;;8.93;3.13;;;26.50;79.80;;;;;;5051508;28;20108;-25
2022/08/25 10:11:51;;;;;;;10.25;2.90;;;26.50;79.70;;;;;;5051523;28;20071;-25
2022/08/25 10:14:44;;;;;;;5.13;2.70;;;26.50;79.60;;;;;;5051643;28;20021;-26
2022/08/25 10:17:15;;;;;;;5.57;2.55;;;26.50;79.60;;;;;;5051624;28;20041;-26
2022/08/25 10:19:41;;;;;;;3.33;2.40;;;26.60;79.50;;;;;;5051384;28;20107;-26
2022/08/25 10:22:30;;;;;;;5.88;2.80;;;26.60;79.50;;;;;;5051431;28;20027;-25
2022/08/25 10:24:57;;;;;;;5.63;2.80;;;26.60;79.40;;;;;;5051607;28;20068;-25
2022/08/25 10:27:31;;;;;;;7.20;3.10;;;26.70;79.40;;;;;;5051409;28;20017;-26
2022/08/25 10:30:18;;;;;;;7.10;2.90;;;26.70;79.30;;;;;;5051371;28;20565;-26
2022/08/25 10:32:52;;;;;;;6.82;2.53;;;26.70;79.20;;;;;;5051484;28;20441;-25
2022/08/25 10:35:30;;;;;;;6.07;2.75;;;26.70;79.20;;;;;;5051751;28;20386;-25
2022/08/25 10:38:28;;;;;;;4.13;2.80;;;26.70;79.10;;;;;;5033481;28;20036;-26
2022/08/25 10:41:18;;;;;;;4.53;2.90;;;26.80;79.10;;;;;;4996872;28;20033;-25
2022/08/25 10:45:41;;;;;;;4.63;2.53;;;26.80;79.10;;;;;;5051408;28;20020;-25
2022/08/25 10:47:02;;;;;;;7.32;2.28;;;26.80;79.00;;;;;;5051030;28;20025;-25
2022/08/25 10:49:41;;;;;;;2.90;2.13;;;26.80;79.00;;;;;;5051146;28;20527;-25
2022/08/25 10:52:16;;;;;;;4.05;2.70;;;26.80;79.00;;;;;;5051180;28;20029;-25
2022/08/25 10:55:08;;;;;;;6.50;2.63;;;26.80;78.90;;;;;;5051380;28;20024;-25
2022/08/25 10:57:52;;;;;;;4.20;2.40;;;26.80;78.90;;;;;;5051279;28;20025;-26
2022/08/25 11:00:22;;;;;;;4.60;2.35;;;26.90;79.00;;;;;;5051352;28;20382;-25
2022/08/25 11:03:21;;;;;;;4.28;2.22;;;26.90;78.90;;;;;;5051443;28;20032;-26
2022/08/25 11:05:56;;;;;;;6.88;2.33;;;26.90;78.80;;;;;;5054662;28;20043;-26
2022/08/25 11:08:36;;;;;;;8.70;2.60;;;26.90;78.80;;;;;;5054756;28;20029;-26
2022/08/25 11:11:20;;;;;;;3.80;2.22;;;26.90;78.80;;;;;;5054580;28;20516;-26
2022/08/25 11:13:52;;;;;;;5.97;2.35;;;27.00;79.60;;;;;;5054624;28;20041;-25
2022/08/25 11:16:27;;;;;;;3.50;2.08;;;26.90;78.70;;;;;;5054604;28;20364;-25
2022/08/25 11:19:00;;;;;;;5.43;2.47;;;26.90;78.60;;;;;;5054402;28;20112;-25
2022/08/25 11:21:38;;;;;;;5.25;2.10;;;27.00;78.70;;;;;;5054312;28;20048;-25
2022/08/25 11:24:12;;;;;;;3.47;2.08;;;26.90;78.60;;;;;;5054417;28;20481;-26
2022/08/25 11:26:44;;;;;;;3.85;2.45;;;26.90;78.70;;;;;;5054384;28;20087;-25
2022/08/25 11:29:17;;;;;;;4.55;2.70;;;26.90;78.70;;;;;;5054105;28;20051;-25
2022/08/25 11:31:47;;;;;;;2.95;2.22;;;26.90;78.70;;;;;;5053966;28;20029;-26
2022/08/25 11:34:14;;;;;;;3.10;2.35;;;26.90;78.80;;;;;;5054660;28;20052;-26
2022/08/25 11:36:47;;;;;;;4.28;2.25;;;26.90;78.90;;;;;;5053978;28;20490;-26
2022/08/25 11:39:37;;;;;;;3.40;2.25;;;26.90;79.80;;;;;;5053984;28;20029;-26
2022/08/25 11:42:24;;;;;;;3.17;2.20;;;26.90;78.90;;;;;;5054287;28;20028;-26
2022/08/25 11:45:37;;;;;;;3.40;2.22;;;26.90;78.80;;;;;;5054001;28;20035;-27
2022/08/25 11:48:24;;;;;;;3.00;2.20;;;26.90;78.80;;;;;;5053900;28;20033;-25
2022/08/25 11:51:00;;;;;;;2.75;2.30;;;27.00;78.80;;;;;;5053825;28;20100;-26
2022/08/25 11:53:39;;;;;;;2.95;1.98;;;27.00;78.70;;;;;;5053762;28;20017;-25
2022/08/25 11:56:11;;;;;;;2.42;1.88;;;27.00;78.60;;;;;;5053911;28;20017;-25
2022/08/25 11:58:46;;;;;;;3.00;2.53;;;27.00;78.60;;;;;;5053598;28;20089;-25
2022/08/25 12:01:37;;;;;;;2.75;2.15;;;27.10;78.50;;;;;;5053618;28;20048;-26
2022/08/25 12:04:32;;;;;;;4.10;1.88;;;27.10;78.40;;;;;;5053465;28;20032;-26
2022/08/25 12:07:09;;;;;;;2.72;2.10;;;27.10;78.40;;;;;;5053640;28;20044;-27
2022/08/25 12:09:50;;;;;;;2.55;2.03;;;27.10;78.40;;;;;;5053408;28;20025;-27
2022/08/25 12:12:30;;;;;;;2.55;2.22;;;27.10;78.50;;;;;;5053257;28;20367;-25
2022/08/25 12:15:18;;;;;;;2.38;2.03;;;27.20;79.30;;;;;;5052984;28;20075;-26
2022/08/25 12:17:44;;;;;;;3.58;2.25;;;27.10;78.60;;;;;;5053456;28;20028;-27
2022/08/25 12:20:10;;;;;;;1.92;1.70;;;27.00;78.70;;;;;;5053704;28;20033;-26
2022/08/25 12:22:36;;;;;;;3.00;2.20;;;27.00;78.70;;;;;;5053107;28;20028;-26
2022/08/25 12:25:30;;;;;;;2.60;2.08;;;27.00;78.80;;;;;;5053250;28;20033;-26
2022/08/25 12:28:06;;;;;;;;;;;27.00;78.80;;;;;;5053602;28;20478;-25
2022/08/25 12:30:48;;;;;;;2.60;1.77;;;27.00;78.90;;;;;;5053016;28;19905;-27
2022/08/25 12:33:38;;;;;;;4.10;2.13;;;26.90;78.90;;;;;;5052915;28;20104;-27
2022/08/25 12:36:07;;;;;;;2.90;1.90;;;26.90;79.00;;;;;;5053043;28;20017;-25
2022/08/25 12:38:42;;;;;;;2.50;2.00;;;26.90;79.60;;;;;;5052858;28;20051;-25
2022/08/25 12:41:15;;;;;;;2.67;2.15;;;27.00;78.80;;;;;;5052741;28;20033;-26
2022/08/25 12:43:46;;;;;;;2.63;2.10;;;27.00;78.80;;;;;;5052885;28;20060;-25
2022/08/25 12:46:21;;;;;;;4.47;2.03;;;27.00;78.70;;;;;;5052891;28;20025;-26
2022/08/25 12:49:02;;;;;;;3.38;2.10;;;27.10;78.80;;;;;;5052514;28;20031;-26
2022/08/25 12:51:53;;;;;;;3.67;1.92;;;27.10;78.70;;;;;;5052678;28;20048;-26
2022/08/25 12:54:48;;;;;;;3.08;2.17;;;27.10;78.60;;;;;;5052788;28;20100;-27
2022/08/25 12:57:41;;;;;;;4.07;2.20;;;27.10;78.60;;;;;;5052733;28;20021;-26
2022/08/25 13:00:26;;;;;;;2.28;1.98;;;27.10;78.50;;;;;;5052279;28;20029;-27
2022/08/25 13:03:24;;;;;;;2.72;1.90;;;27.10;78.60;;;;;;5052614;28;20029;-27
2022/08/25 13:06:14;;;;;;;2.50;1.70;;;27.10;78.60;;;;;;4997522;28;20051;-26
2022/08/25 13:09:15;;;;;;;3.05;1.95;;;27.10;78.70;;;;;;5052168;28;20036;-27
2022/08/25 13:11:45;;;;;;;2.17;1.67;;;27.10;78.80;;;;;;5052402;28;20048;-27